createdAt,value
2022-08-30T00:02:05.788Z,6.00
2022-08-30T00:04:32.729Z,6.82
2022-08-30T00:06:59.976Z,6.72
2022-08-30T00:09:26.722Z,6.55
2022-08-30T00:14:20.370Z,7.40
2022-08-30T00:16:47.227Z,6.95
2022-08-30T00:19:14.368Z,6.32
2022-08-30T00:21:41.245Z,6.20
2022-08-30T00:24:08.538Z,6.35
2022-08-30T00:26:35.301Z,6.55
2022-08-30T00:31:28.679Z,5.75
2022-08-30T00:36:22.063Z,6.90
2022-08-30T00:38:48.778Z,6.18
2022-08-30T00:43:42.295Z,6.68
2022-08-30T00:48:41.194Z,6.13
2022-08-30T00:51:10.562Z,6.80
2022-08-30T00:53:40.476Z,6.38
2022-08-30T00:56:07.709Z,6.90
2022-08-30T00:58:38.370Z,6.47
2022-08-30T01:01:07.992Z,6.57
2022-08-30T01:03:36.748Z,7.00
2022-08-30T01:06:05.152Z,7.68
2022-08-30T01:08:31.963Z,6.45
2022-08-30T01:13:29.289Z,5.75
2022-08-30T01:15:56.140Z,6.47
2022-08-30T01:18:23.981Z,6.85
2022-08-30T01:21:17.177Z,6.80
2022-08-30T01:23:46.108Z,6.35
2022-08-30T01:26:15.781Z,6.28
2022-08-30T01:28:46.470Z,6.65
2022-08-30T01:31:13.323Z,7.70
2022-08-30T01:33:40.571Z,6.07
2022-08-30T01:36:12.365Z,6.38
2022-08-30T01:38:48.474Z,6.82
2022-08-30T01:41:28.961Z,6.45
2022-08-30T01:43:57.847Z,7.28
2022-08-30T01:46:28.770Z,6.75
2022-08-30T01:48:57.258Z,7.15
2022-08-30T01:51:27.066Z,7.53
2022-08-30T01:53:54.705Z,6.72
2022-08-30T01:56:22.752Z,6.57
2022-08-30T01:58:50.300Z,6.97
2022-08-30T02:01:19.755Z,5.72
2022-08-30T02:03:47.024Z,6.40
2022-08-30T02:06:17.320Z,6.47
2022-08-30T02:08:45.095Z,6.18
2022-08-30T02:11:12.442Z,6.60
2022-08-30T02:13:40.401Z,6.72
2022-08-30T02:16:09.200Z,6.75
2022-08-30T02:18:38.495Z,5.95
2022-08-30T02:21:06.243Z,6.45
2022-08-30T02:23:33.026Z,6.72
2022-08-30T02:28:26.416Z,6.28
2022-08-30T02:33:20.613Z,7.00
2022-08-30T02:35:47.481Z,7.30
2022-08-30T02:38:14.718Z,7.13
2022-08-30T02:40:41.879Z,6.90
2022-08-30T02:43:08.746Z,6.57
2022-08-30T02:48:02.506Z,6.32
2022-08-30T02:50:29.418Z,6.47
2022-08-30T02:52:56.184Z,6.18
2022-08-30T02:57:50.450Z,7.43
2022-08-30T03:00:19.784Z,6.47
2022-08-30T03:02:47.117Z,6.47
2022-08-30T03:05:15.440Z,6.35
2022-08-30T03:07:43.587Z,6.80
2022-08-30T03:10:10.916Z,6.53
2022-08-30T03:12:38.277Z,6.25
2022-08-30T03:15:06.773Z,6.68
2022-08-30T03:17:33.683Z,6.68
2022-08-30T03:20:02.149Z,6.03
2022-08-30T03:22:29.568Z,6.38
2022-08-30T03:25:01.299Z,6.15
2022-08-30T03:27:29.492Z,6.60
2022-08-30T03:29:56.445Z,5.97
2022-08-30T03:32:24.033Z,6.72
2022-08-30T03:34:50.893Z,6.25
2022-08-30T03:37:18.131Z,7.45
2022-08-30T03:39:45.486Z,6.28
2022-08-30T03:42:12.765Z,6.20
2022-08-30T03:44:39.822Z,7.10
2022-08-30T03:47:08.389Z,5.93
2022-08-30T03:49:35.424Z,6.95
2022-08-30T03:52:02.494Z,6.90
2022-08-30T03:54:29.584Z,7.60
2022-08-30T03:56:56.477Z,6.70
2022-08-30T03:59:23.426Z,7.25
2022-08-30T04:01:50.343Z,6.95
2022-08-30T04:04:20.913Z,6.97
2022-08-30T04:06:49.024Z,6.53
2022-08-30T04:09:16.454Z,7.45
2022-08-30T04:11:43.403Z,6.97
2022-08-30T04:14:10.495Z,6.50
2022-08-30T04:16:37.393Z,6.80
2022-08-30T04:19:04.450Z,6.60
2022-08-30T04:21:31.692Z,7.05
2022-08-30T04:23:58.944Z,7.25
2022-08-30T04:26:29.274Z,6.68
2022-08-30T04:28:56.780Z,6.75
2022-08-30T04:31:24.212Z,6.80
2022-08-30T04:33:51.097Z,7.05
2022-08-30T04:38:44.636Z,7.55
2022-08-30T04:43:40.115Z,6.32
2022-08-30T04:46:08.254Z,6.80
2022-08-30T04:48:37.126Z,6.70
2022-08-30T04:51:06.606Z,6.57
2022-08-30T04:53:33.696Z,7.50
2022-08-30T04:56:01.095Z,8.05
2022-08-30T04:58:28.023Z,7.47
2022-08-30T05:00:55.036Z,8.07
2022-08-30T05:03:21.878Z,6.45
2022-08-30T05:08:23.226Z,6.63
2022-08-30T05:10:52.640Z,6.70
2022-08-30T05:13:21.331Z,7.05
2022-08-30T05:16:04.015Z,6.95
2022-08-30T05:18:30.985Z,6.35
2022-08-30T05:23:56.482Z,6.18
2022-08-30T05:26:26.762Z,6.30
2022-08-30T05:28:53.772Z,6.78
2022-08-30T05:31:27.188Z,6.68
2022-08-30T05:33:55.207Z,6.53
2022-08-30T05:36:26.050Z,7.38
2022-08-30T05:38:53.936Z,6.88
2022-08-30T05:41:22.120Z,7.28
2022-08-30T05:43:49.196Z,7.65
2022-08-30T05:46:19.845Z,8.25
2022-08-30T05:48:47.044Z,8.63
2022-08-30T05:51:19.959Z,8.02
2022-08-30T05:53:47.937Z,8.20
2022-08-30T05:56:17.761Z,9.10
2022-08-30T05:58:45.018Z,9.85
2022-08-30T06:01:29.759Z,8.45
2022-08-30T06:04:03.012Z,7.63
2022-08-30T06:06:32.972Z,8.07
2022-08-30T06:09:00.255Z,6.63
2022-08-30T06:11:28.211Z,7.25
2022-08-30T06:13:55.667Z,7.53
2022-08-30T06:16:25.111Z,6.10
2022-08-30T06:18:53.975Z,6.80
2022-08-30T06:21:26.957Z,7.53
2022-08-30T06:23:54.298Z,7.50
2022-08-30T06:26:21.616Z,7.30
2022-08-30T06:28:49.207Z,6.60
2022-08-30T06:31:18.316Z,7.40
2022-08-30T06:33:46.004Z,6.70
2022-08-30T06:36:17.842Z,7.13
2022-08-30T06:38:45.258Z,7.53
2022-08-30T06:41:15.517Z,6.35
2022-08-30T06:43:48.173Z,5.90
2022-08-30T06:46:22.178Z,6.18
2022-08-30T06:48:49.058Z,6.70
2022-08-30T06:51:19.755Z,6.95
2022-08-30T06:53:46.739Z,6.53
2022-08-30T06:56:16.583Z,7.90
2022-08-30T06:58:44.504Z,9.20
2022-08-30T07:01:21.647Z,8.18
2022-08-30T07:06:15.968Z,9.48
2022-08-30T07:08:46.767Z,6.85
2022-08-30T07:11:13.613Z,8.55
2022-08-30T07:13:40.457Z,8.50
2022-08-30T07:16:14.700Z,8.25
2022-08-30T07:18:50.527Z,8.50
2022-08-30T07:21:21.295Z,8.95
2022-08-30T07:23:53.567Z,9.60
2022-08-30T07:26:27.244Z,8.32
2022-08-30T07:28:56.211Z,8.73
2022-08-30T07:31:24.660Z,8.23
2022-08-30T07:33:52.452Z,8.35
2022-08-30T07:36:21.732Z,8.18
2022-08-30T07:38:50.910Z,8.15
2022-08-30T07:41:21.192Z,7.53
2022-08-30T07:43:48.069Z,7.75
2022-08-30T07:46:16.117Z,8.27
2022-08-30T07:48:44.184Z,7.97
2022-08-30T07:51:19.945Z,8.18
2022-08-30T07:53:46.845Z,8.52
2022-08-30T07:56:14.180Z,7.93
2022-08-30T07:58:41.233Z,7.85
2022-08-30T08:01:09.835Z,7.90
2022-08-30T08:03:39.034Z,7.55
2022-08-30T08:06:07.625Z,7.15
2022-08-30T08:08:35.951Z,7.57
2022-08-30T08:11:16.367Z,8.02
2022-08-30T08:13:52.631Z,7.13
2022-08-30T08:16:23.681Z,7.40
2022-08-30T08:18:51.930Z,6.60
2022-08-30T08:21:18.954Z,6.70
2022-08-30T08:23:46.074Z,7.15
2022-08-30T08:26:12.944Z,7.05
2022-08-30T08:28:39.710Z,8.00
2022-08-30T08:31:22.032Z,10.30
2022-08-30T08:33:56.674Z,10.38
2022-08-30T08:36:24.993Z,8.18
2022-08-30T08:38:54.354Z,7.70
2022-08-30T08:41:50.558Z,6.75
2022-08-30T08:44:18.935Z,10.20
2022-08-30T08:47:01.175Z,8.02
2022-08-30T08:49:32.250Z,6.72
2022-08-30T08:52:18.808Z,7.00
2022-08-30T08:54:59.206Z,7.28
2022-08-30T08:57:32.402Z,7.95
2022-08-30T09:00:00.673Z,7.82
2022-08-30T09:02:36.979Z,7.85
2022-08-30T09:05:09.142Z,7.43
2022-08-30T09:07:42.230Z,9.07
2022-08-30T09:10:11.273Z,7.75
2022-08-30T09:12:40.959Z,8.13
2022-08-30T09:15:22.588Z,8.45
2022-08-30T09:17:51.782Z,7.63
2022-08-30T09:20:35.829Z,7.80
2022-08-30T09:23:17.633Z,7.25
2022-08-30T09:25:55.833Z,7.35
2022-08-30T09:28:49.289Z,8.07
2022-08-30T09:31:27.274Z,8.07
2022-08-30T09:34:10.129Z,7.78
2022-08-30T09:36:45.790Z,7.65
2022-08-30T09:39:21.362Z,8.18
2022-08-30T09:42:10.954Z,8.40
2022-08-30T09:44:39.977Z,7.90
2022-08-30T09:47:24.035Z,7.80
2022-08-30T09:50:07.578Z,6.45
2022-08-30T09:52:44.631Z,7.68
2022-08-30T09:55:42.382Z,7.15
2022-08-30T09:58:29.355Z,8.05
2022-08-30T10:01:27.099Z,7.65
2022-08-30T10:04:18.475Z,8.95
2022-08-30T10:07:01.312Z,8.35
2022-08-30T10:09:45.283Z,8.15
2022-08-30T10:12:14.056Z,7.68
2022-08-30T10:15:00.242Z,8.32
2022-08-30T10:17:52.409Z,6.68
2022-08-30T10:20:46.436Z,7.40
2022-08-30T10:23:26.324Z,7.95
2022-08-30T10:26:00.661Z,6.72
2022-08-30T10:28:37.022Z,10.00
2022-08-30T10:31:20.528Z,11.50
2022-08-30T10:33:58.155Z,10.90
2022-08-30T10:36:36.555Z,12.05
2022-08-30T10:39:06.110Z,13.98
2022-08-30T10:42:09.824Z,12.07
2022-08-30T10:44:49.288Z,14.57
2022-08-30T10:47:36.844Z,9.98
2022-08-30T10:50:15.533Z,12.20
2022-08-30T10:52:59.141Z,10.38
2022-08-30T10:55:34.525Z,10.93
2022-08-30T10:58:06.194Z,9.20
2022-08-30T11:00:46.081Z,6.88
2022-08-30T11:03:34.974Z,8.00
2022-08-30T11:06:25.200Z,8.35
2022-08-30T11:09:03.098Z,6.20
2022-08-30T11:11:50.474Z,6.68
2022-08-30T11:14:25.591Z,7.35
2022-08-30T11:16:57.500Z,7.22
2022-08-30T11:19:47.105Z,6.25
2022-08-30T11:22:23.700Z,7.25
2022-08-30T11:25:16.069Z,6.45
2022-08-30T11:27:54.308Z,5.80
2022-08-30T11:30:26.986Z,5.70
2022-08-30T11:33:07.868Z,5.60
2022-08-30T11:35:48.349Z,5.82
2022-08-30T11:38:20.688Z,5.20
2022-08-30T11:40:52.469Z,5.70
2022-08-30T11:43:43.824Z,6.05
2022-08-30T11:46:15.134Z,6.07
2022-08-30T11:49:03.586Z,6.47
2022-08-30T11:52:23.629Z,5.20
2022-08-30T11:55:23.071Z,5.15
2022-08-30T11:58:11.509Z,5.07
2022-08-30T12:00:45.674Z,5.05
2022-08-30T12:03:17.301Z,5.78
2022-08-30T12:05:51.950Z,5.57
2022-08-30T12:08:48.050Z,5.70
2022-08-30T12:11:16.437Z,5.22
2022-08-30T12:13:45.842Z,5.63
2022-08-30T12:16:22.199Z,5.78
2022-08-30T12:18:57.733Z,5.70
2022-08-30T12:21:43.691Z,4.65
2022-08-30T12:24:40.783Z,5.25
2022-08-30T12:27:24.720Z,5.45
2022-08-30T12:30:00.042Z,4.53
2022-08-30T12:32:31.529Z,5.40
2022-08-30T12:35:04.681Z,5.50
2022-08-30T12:37:37.802Z,6.00
2022-08-30T12:40:15.652Z,5.10
2022-08-30T12:42:54.120Z,5.22
2022-08-30T12:45:31.024Z,5.00
2022-08-30T12:48:07.175Z,4.88
2022-08-30T12:50:44.108Z,4.63
2022-08-30T12:53:14.696Z,4.97
2022-08-30T12:55:57.317Z,4.90
2022-08-30T12:58:50.884Z,4.55
2022-08-30T13:01:28.690Z,4.65
2022-08-30T13:03:59.771Z,4.82
2022-08-30T13:06:59.824Z,5.05
2022-08-30T13:09:32.227Z,11.52
2022-08-30T13:12:21.053Z,6.03
2022-08-30T13:14:50.458Z,6.95
2022-08-30T13:17:25.261Z,10.20
2022-08-30T13:20:21.351Z,8.32
2022-08-30T13:25:39.879Z,8.20
2022-08-30T13:28:08.887Z,6.82
2022-08-30T13:30:38.986Z,6.88
2022-08-30T13:33:07.543Z,9.75
2022-08-30T13:35:35.789Z,8.57
2022-08-30T13:38:04.780Z,9.57
2022-08-30T13:40:33.059Z,5.00
2022-08-30T13:43:02.433Z,8.82
2022-08-30T13:45:46.195Z,5.88
2022-08-30T13:48:16.358Z,4.40
2022-08-30T13:50:46.118Z,4.45
2022-08-30T13:53:16.113Z,4.50
2022-08-30T13:55:44.864Z,5.07
2022-08-30T13:58:13.792Z,4.70
2022-08-30T14:00:42.318Z,4.30
2022-08-30T14:03:12.146Z,4.53
2022-08-30T14:05:49.824Z,4.05
2022-08-30T14:11:13.133Z,4.45
2022-08-30T14:16:32.770Z,3.90
2022-08-30T14:19:01.470Z,4.45
2022-08-30T14:21:29.587Z,3.78
2022-08-30T14:23:59.746Z,3.90
2022-08-30T14:26:33.236Z,4.20
2022-08-30T14:29:23.340Z,3.83
2022-08-30T14:31:53.491Z,4.80
2022-08-30T14:34:23.290Z,3.80
2022-08-30T14:36:51.653Z,3.45
2022-08-30T14:39:21.336Z,4.30
2022-08-30T14:41:52.770Z,3.80
2022-08-30T14:44:23.195Z,4.40
2022-08-30T14:46:52.357Z,4.30
2022-08-30T14:49:22.127Z,4.25
2022-08-30T14:51:51.951Z,4.75
2022-08-30T14:54:25.390Z,4.13
2022-08-30T14:56:54.800Z,4.20
2022-08-30T14:59:24.536Z,4.25
2022-08-30T15:01:52.714Z,4.28
2022-08-30T15:04:21.704Z,4.32
2022-08-30T15:06:50.823Z,3.88
2022-08-30T15:09:23.156Z,4.97
2022-08-30T15:11:58.636Z,3.85
2022-08-30T15:14:28.440Z,3.80
2022-08-30T15:16:58.858Z,4.20
2022-08-30T15:19:27.301Z,3.83
2022-08-30T15:21:55.517Z,3.72
2022-08-30T15:24:29.638Z,4.55
2022-08-30T15:26:59.827Z,3.60
2022-08-30T15:29:28.304Z,4.78
2022-08-30T15:31:59.759Z,4.00
2022-08-30T15:34:28.289Z,4.00
2022-08-30T15:36:56.580Z,4.32
2022-08-30T15:39:25.536Z,4.10
2022-08-30T15:41:58.436Z,4.18
2022-08-30T15:44:29.255Z,4.28
2022-08-30T15:46:57.561Z,4.47
2022-08-30T15:49:26.270Z,3.97
2022-08-30T15:51:54.761Z,3.83
2022-08-30T15:54:24.405Z,4.47
2022-08-30T15:56:59.840Z,3.95
2022-08-30T15:59:29.874Z,4.03
2022-08-30T16:01:58.467Z,4.15
2022-08-30T16:04:27.576Z,4.57
2022-08-30T16:06:55.755Z,4.35
2022-08-30T16:09:25.407Z,4.70
2022-08-30T16:11:59.016Z,4.03
2022-08-30T16:14:27.962Z,5.25
2022-08-30T16:16:56.426Z,4.28
2022-08-30T16:19:25.265Z,5.00
2022-08-30T16:21:53.693Z,4.57
2022-08-30T16:24:23.703Z,4.63
2022-08-30T16:26:52.276Z,4.07
2022-08-30T16:29:21.287Z,4.88
2022-08-30T16:31:49.909Z,4.30
2022-08-30T16:34:20.266Z,4.38
2022-08-30T16:36:49.152Z,4.18
2022-08-30T16:39:17.743Z,4.50
2022-08-30T16:41:46.955Z,4.60
2022-08-30T16:44:17.966Z,4.22
2022-08-30T16:46:52.723Z,4.97
2022-08-30T16:49:22.983Z,4.85
2022-08-30T16:51:52.515Z,5.05
2022-08-30T16:54:22.261Z,5.40
2022-08-30T16:56:51.263Z,5.38
2022-08-30T16:59:20.361Z,5.72
2022-08-30T17:01:49.396Z,5.72
2022-08-30T17:04:19.522Z,5.85
2022-08-30T17:06:50.262Z,5.63
2022-08-30T17:09:20.346Z,4.95
2022-08-30T17:11:49.235Z,4.78
2022-08-30T17:14:28.029Z,4.82
2022-08-30T17:17:00.456Z,4.45
2022-08-30T17:19:30.451Z,4.55
2022-08-30T17:22:01.183Z,5.28
2022-08-30T17:24:29.982Z,4.75
2022-08-30T17:26:59.819Z,5.72
2022-08-30T17:29:28.679Z,5.72
2022-08-30T17:31:57.290Z,4.93
2022-08-30T17:34:27.411Z,4.60
2022-08-30T17:36:58.712Z,5.25
2022-08-30T17:39:28.940Z,5.50
2022-08-30T17:42:00.893Z,5.75
2022-08-30T17:44:32.400Z,5.70
2022-08-30T17:47:02.371Z,5.68
2022-08-30T17:49:31.703Z,5.30
2022-08-30T17:52:02.098Z,5.30
2022-08-30T17:54:33.168Z,5.10
2022-08-30T17:57:05.431Z,5.30
2022-08-30T17:59:36.860Z,5.93
2022-08-30T18:02:06.355Z,5.40
2022-08-30T18:04:34.786Z,5.18
2022-08-30T18:07:03.941Z,5.80
2022-08-30T18:09:34.146Z,5.65
2022-08-30T18:12:03.097Z,6.03
2022-08-30T18:14:31.637Z,5.43
2022-08-30T18:17:00.395Z,5.32
2022-08-30T18:19:30.835Z,5.75
2022-08-30T18:22:03.365Z,5.32
2022-08-30T18:24:32.117Z,5.85
2022-08-30T18:27:01.463Z,5.13
2022-08-30T18:29:32.226Z,5.32
2022-08-30T18:32:02.597Z,5.10
2022-08-30T18:34:31.827Z,5.30
2022-08-30T18:37:01.590Z,5.50
2022-08-30T18:39:34.554Z,5.63
2022-08-30T18:42:07.341Z,5.80
2022-08-30T18:44:38.922Z,5.00
2022-08-30T18:47:07.808Z,4.97
2022-08-30T18:49:37.702Z,5.05
2022-08-30T18:52:08.951Z,5.57
2022-08-30T18:54:46.278Z,5.60
2022-08-30T18:57:20.875Z,5.65
2022-08-30T18:59:50.706Z,4.97
2022-08-30T19:02:20.585Z,4.97
2022-08-30T19:04:49.493Z,5.38
2022-08-30T19:07:19.459Z,5.65
2022-08-30T19:09:47.784Z,6.03
2022-08-30T19:12:16.572Z,6.20
2022-08-30T19:14:44.555Z,6.38
2022-08-30T19:17:12.817Z,5.85
2022-08-30T19:19:48.457Z,5.95
2022-08-30T19:22:26.761Z,5.15
2022-08-30T19:24:58.660Z,5.13
2022-08-30T19:27:38.088Z,5.60
2022-08-30T19:30:11.958Z,5.82
2022-08-30T19:32:39.898Z,5.80
2022-08-30T19:35:09.922Z,5.35
2022-08-30T19:37:41.894Z,6.22
2022-08-30T19:40:14.845Z,5.97
2022-08-30T19:42:46.145Z,5.65
2022-08-30T19:45:18.509Z,5.50
2022-08-30T19:47:47.300Z,5.60
2022-08-30T19:50:16.125Z,5.30
2022-08-30T19:52:51.073Z,5.75
2022-08-30T19:55:23.877Z,4.45
2022-08-30T19:57:57.413Z,4.90
2022-08-30T20:00:25.676Z,5.22
2022-08-30T20:02:54.580Z,5.00
2022-08-30T20:05:23.885Z,4.68
2022-08-30T20:07:51.890Z,4.35
2022-08-30T20:10:22.035Z,3.83
2022-08-30T20:12:54.995Z,3.72
2022-08-30T20:15:23.655Z,3.90
2022-08-30T20:18:13.566Z,4.50
2022-08-30T20:20:40.366Z,4.38
2022-08-30T20:23:08.558Z,3.92
2022-08-30T20:25:38.216Z,4.40
2022-08-30T20:28:07.185Z,3.65
2022-08-30T20:30:35.447Z,4.25
2022-08-30T20:33:08.567Z,3.42
2022-08-30T20:35:37.405Z,3.83
2022-08-30T20:38:07.054Z,3.70
2022-08-30T20:40:39.749Z,3.97
2022-08-30T20:43:08.852Z,4.22
2022-08-30T20:45:37.060Z,3.97
2022-08-30T20:48:06.442Z,4.53
2022-08-30T20:50:34.577Z,4.13
2022-08-30T20:53:03.157Z,3.58
2022-08-30T20:55:31.056Z,4.57
2022-08-30T20:57:59.155Z,3.50
2022-08-30T21:00:28.120Z,4.60
2022-08-30T21:02:56.605Z,4.03
2022-08-30T21:07:37.154Z,4.23
2022-08-30T21:10:06.524Z,4.40
2022-08-30T21:12:35.013Z,3.88
2022-08-30T21:15:20.794Z,4.47
2022-08-30T21:17:51.525Z,4.10
2022-08-30T21:20:19.786Z,4.47
2022-08-30T21:22:47.937Z,3.85
2022-08-30T21:25:16.780Z,4.55
2022-08-30T21:27:45.264Z,4.30
2022-08-30T21:30:14.842Z,4.55
2022-08-30T21:32:43.578Z,4.20
2022-08-30T21:35:30.064Z,4.47
2022-08-30T21:37:58.352Z,4.55
2022-08-30T21:40:26.227Z,3.92
2022-08-30T21:42:54.885Z,4.05
2022-08-30T21:45:23.593Z,3.58
2022-08-30T21:47:51.838Z,3.67
2022-08-30T21:50:20.312Z,3.83
2022-08-30T21:52:49.035Z,5.07
2022-08-30T21:55:17.242Z,3.75
2022-08-30T21:57:45.451Z,3.90
2022-08-30T22:00:19.456Z,4.00
2022-08-30T22:02:53.271Z,4.25
2022-08-30T22:05:21.981Z,3.55
2022-08-30T22:07:50.235Z,4.70
2022-08-30T22:10:21.002Z,4.30
2022-08-30T22:12:49.646Z,4.60
2022-08-30T22:15:18.576Z,4.40
2022-08-30T22:17:46.812Z,4.53
2022-08-30T22:20:18.433Z,4.72
2022-08-30T22:22:47.069Z,4.10
2022-08-30T22:25:15.318Z,3.72
2022-08-30T22:27:43.235Z,4.68
2022-08-30T22:30:11.615Z,4.90
2022-08-30T22:32:40.793Z,3.75
2022-08-30T22:35:09.103Z,4.15
2022-08-30T22:37:36.817Z,4.20
2022-08-30T22:40:05.549Z,4.95
2022-08-30T22:42:33.682Z,5.50
2022-08-30T22:45:01.761Z,4.35
2022-08-30T22:47:31.486Z,4.90
2022-08-30T22:50:00.265Z,4.75
2022-08-30T22:52:28.353Z,4.03
2022-08-30T22:54:56.800Z,4.90
2022-08-30T22:57:25.012Z,4.75
2022-08-30T22:59:52.775Z,4.43
2022-08-30T23:02:21.219Z,4.10
2022-08-30T23:04:49.818Z,4.35
2022-08-30T23:07:17.855Z,5.72
2022-08-30T23:09:46.153Z,5.32
2022-08-30T23:12:14.118Z,5.55
2022-08-30T23:14:42.497Z,5.45
2022-08-30T23:17:10.373Z,5.10
2022-08-30T23:19:38.247Z,5.53
2022-08-30T23:22:06.848Z,5.85
2022-08-30T23:24:53.435Z,6.30
2022-08-30T23:27:42.619Z,6.43
2022-08-30T23:30:29.939Z,7.22
2022-08-30T23:33:16.961Z,8.48
2022-08-30T23:36:03.530Z,7.53
2022-08-30T23:38:49.947Z,7.03
2022-08-30T23:41:36.345Z,6.43
2022-08-30T23:44:23.182Z,6.55
2022-08-30T23:47:10.099Z,7.70
2022-08-30T23:49:56.961Z,6.60
2022-08-30T23:52:43.311Z,7.00
2022-08-30T23:55:30.195Z,6.30
2022-08-30T23:58:16.726Z,7.45
